Time;durP1;ratioP1;P1;durP2;ratioP2;P2;SDS_P1;SDS_P2;PMS_P1;PMS_P2;Temp;Humidity;BMP_temperature;BMP_pressure;BME280_temperature;BME280_humidity;BME280_pressure;Samples;Min_cycle;Max_cycle;Signal;HPM_P1;HPM_P2
2022/04/09 00:00:15;;;;;;;1.90;0.97;;;;;;;0.25;100.00;94368.13;5061954;28;20486;-80
2022/04/09 00:02:41;;;;;;;0.30;0.30;;;;;;;0.24;100.00;94382.03;5022266;28;20028;-80
2022/04/09 00:05:09;;;;;;;0.80;0.70;;;;;;;0.14;100.00;94392.41;5035614;28;21019;-79
2022/04/09 00:07:35;;;;;;;1.30;0.30;;;;;;;0.07;100.00;94403.41;5022315;28;20624;-79
2022/04/09 00:10:02;;;;;;;0.47;0.33;;;;;;;0.08;100.00;94412.81;5032641;28;20506;-79
2022/04/09 00:12:28;;;;;;;0.30;0.30;;;;;;;-0.04;100.00;94419.91;5032854;28;20893;-80
2022/04/09 00:14:54;;;;;;;1.27;0.30;;;;;;;0.01;100.00;94422.09;5044627;28;20482;-79
2022/04/09 00:17:20;;;;;;;0.17;0.13;;;;;;;0.06;100.00;94441.38;5032281;28;20028;-79
2022/04/09 00:19:46;;;;;;;0.73;0.47;;;;;;;0.05;100.00;94439.75;5021821;28;20478;-79
2022/04/09 00:22:13;;;;;;;0.20;0.20;;;;;;;-0.07;100.00;94459.78;5016707;28;20021;-80
2022/04/09 00:24:38;;;;;;;0.40;0.40;;;;;;;-0.10;100.00;94472.13;5043420;28;20021;-79
2022/04/09 00:27:04;;;;;;;1.50;0.20;;;;;;;-0.06;100.00;94478.69;5015797;28;20845;-79
2022/04/09 00:29:30;;;;;;;0.30;0.27;;;;;;;-0.05;100.00;94494.03;5012651;28;20124;-79
2022/04/09 00:31:56;;;;;;;0.47;0.30;;;;;;;-0.07;100.00;94502.88;5016360;28;20033;-78
2022/04/09 00:34:22;;;;;;;0.20;0.20;;;;;;;-0.11;100.00;94517.00;5015441;28;20450;-78
2022/04/09 00:36:47;;;;;;;0.30;0.30;;;;;;;-0.07;100.00;94523.53;5034457;28;20473;-79
2022/04/09 00:39:13;;;;;;;0.70;0.50;;;;;;;-0.06;100.00;94543.28;5033304;28;20036;-78
2022/04/09 00:41:41;;;;;;;0.50;0.43;;;;;;;-0.08;100.00;94548.56;5010951;28;20035;-78
2022/04/09 00:44:22;;;;;;;0.23;0.20;;;;;;;-0.04;100.00;94574.94;5033998;28;20033;-77
2022/04/09 00:46:48;;;;;;;0.50;0.47;;;;;;;0.02;100.00;94620.94;5015126;28;20491;-79
2022/04/09 00:49:16;;;;;;;0.30;0.30;;;;;;;-0.08;100.00;94639.00;5048190;28;20542;-78
2022/04/09 00:51:48;;;;;;;0.40;0.40;;;;;;;0.05;100.00;94667.19;5044844;28;20816;-78
2022/04/09 00:54:14;;;;;;;0.23;0.20;;;;;;;0.00;100.00;94666.78;5024116;28;20490;-79
2022/04/09 00:56:41;;;;;;;0.20;0.20;;;;;;;0.04;100.00;94660.38;5008770;28;20455;-79
2022/04/09 00:59:10;;;;;;;1.07;0.40;;;;;;;-0.01;100.00;94642.69;5031507;28;20827;-79
2022/04/09 01:01:38;;;;;;;0.70;0.50;;;;;;;0.07;100.00;94649.78;5033045;28;20493;-79
2022/04/09 01:04:10;;;;;;;0.50;0.40;;;;;;;-0.03;100.00;94665.28;5049894;28;20458;-79
2022/04/09 01:06:38;;;;;;;0.50;0.40;;;;;;;0.06;100.00;94673.16;5012640;28;20578;-78
2022/04/09 01:09:05;;;;;;;0.43;0.40;;;;;;;-0.04;100.00;94688.66;5032666;28;20063;-78
2022/04/09 01:11:32;;;;;;;0.73;0.60;;;;;;;-0.01;100.00;94688.38;5042807;28;20499;-79
2022/04/09 01:13:59;;;;;;;0.77;0.40;;;;;;;0.02;100.00;94698.47;5017035;28;20483;-80
2022/04/09 01:16:28;;;;;;;0.80;0.50;;;;;;;0.02;100.00;94701.03;5029962;28;21035;-79
2022/04/09 01:18:56;;;;;;;0.50;0.47;;;;;;;-0.02;100.00;94707.44;5016097;28;20436;-79
2022/04/09 01:21:25;;;;;;;0.50;0.50;;;;;;;-0.10;100.00;94715.84;5014750;28;20510;-77
2022/04/09 01:23:54;;;;;;;0.83;0.60;;;;;;;-0.03;100.00;94731.66;5030325;28;20456;-77
2022/04/09 01:26:22;;;;;;;0.93;0.57;;;;;;;-0.05;100.00;94743.88;5030942;28;20468;-77
2022/04/09 01:28:49;;;;;;;1.03;0.73;;;;;;;-0.07;100.00;94761.25;5012144;28;20496;-77
2022/04/09 01:31:17;;;;;;;1.10;0.80;;;;;;;-0.05;100.00;94774.88;5031124;28;20451;-79
2022/04/09 01:33:43;;;;;;;1.30;0.97;;;;;;;0.01;100.00;94794.22;5033536;28;20473;-79
2022/04/09 01:36:09;;;;;;;1.60;0.97;;;;;;;0.01;100.00;94800.22;5051154;28;20032;-79
2022/04/09 01:38:37;;;;;;;1.53;1.00;;;;;;;0.06;100.00;94829.06;5013336;28;20518;-79
2022/04/09 01:41:04;;;;;;;2.27;1.37;;;;;;;0.08;100.00;94831.53;5033244;28;20451;-79
2022/04/09 01:43:35;;;;;;;2.20;1.20;;;;;;;-0.01;100.00;94840.84;5033123;28;20502;-79
2022/04/09 01:46:02;;;;;;;3.67;1.40;;;;;;;0.02;100.00;94852.72;5027935;28;20543;-78
2022/04/09 01:48:27;;;;;;;3.00;1.67;;;;;;;0.06;100.00;94864.41;5012138;28;20566;-79
2022/04/09 01:50:53;;;;;;;2.03;1.40;;;;;;;0.12;100.00;94874.25;5032808;28;20037;-79
2022/04/09 01:53:19;;;;;;;2.50;1.50;;;;;;;0.13;100.00;94886.22;5014872;28;20125;-78
2022/04/09 01:55:46;;;;;;;2.03;1.13;;;;;;;0.08;100.00;94891.78;5027033;28;20162;-79
2022/04/09 01:58:11;;;;;;;2.97;1.33;;;;;;;0.08;100.00;94893.56;5056250;28;20440;-79
2022/04/09 02:00:41;;;;;;;2.40;1.20;;;;;;;0.09;100.00;94901.16;5033170;28;20475;-79
2022/04/09 02:03:07;;;;;;;3.73;1.27;;;;;;;0.09;100.00;94901.16;5014252;28;21256;-80
2022/04/09 02:05:34;;;;;;;1.50;0.90;;;;;;;0.08;100.00;94902.13;5029006;28;20043;-79
2022/04/09 02:08:00;;;;;;;2.47;1.20;;;;;;;0.03;100.00;94900.84;5027128;28;20029;-80
2022/04/09 02:10:28;;;;;;;2.57;1.53;;;;;;;0.09;100.00;94908.09;5019315;28;20460;-80
2022/04/09 02:12:55;;;;;;;3.20;1.70;;;;;;;0.01;100.00;94918.28;5040700;28;20460;-79
2022/04/09 02:15:21;;;;;;;2.03;1.03;;;;;;;0.02;100.00;94927.66;5018514;28;21204;-77
2022/04/09 02:17:46;;;;;;;2.37;1.27;;;;;;;0.01;100.00;94934.59;5035497;28;20550;-77
2022/04/09 02:20:14;;;;;;;1.97;1.20;;;;;;;-0.06;100.00;94943.81;5034780;28;20090;-76
2022/04/09 02:22:45;;;;;;;2.77;1.30;;;;;;;0.02;100.00;94956.91;5022569;28;20025;-77
2022/04/09 02:25:13;;;;;;;1.83;1.20;;;;;;;-0.03;100.00;94959.88;5050286;28;20427;-77
2022/04/09 02:27:39;;;;;;;2.07;1.40;;;;;;;-0.05;100.00;94976.44;5014217;28;20571;-77
2022/04/09 02:30:08;;;;;;;2.07;1.13;;;;;;;0.03;100.00;94979.22;5015314;28;21050;-77
2022/04/09 02:32:43;;;;;;;3.37;2.10;;;;;;;-0.02;100.00;94986.53;5021908;28;20666;-77
2022/04/09 02:35:11;;;;;;;2.83;1.60;;;;;;;-0.07;100.00;94993.84;5034205;28;20466;-77
2022/04/09 02:37:39;;;;;;;3.20;1.90;;;;;;;-0.06;100.00;95000.66;5011363;28;20567;-77
2022/04/09 02:40:05;;;;;;;2.60;1.43;;;;;;;-0.09;100.00;95006.88;5037862;28;20493;-78
2022/04/09 02:42:31;;;;;;;2.93;1.60;;;;;;;-0.06;100.00;95019.56;5018291;28;20498;-78
2022/04/09 02:44:58;;;;;;;2.57;1.40;;;;;;;-0.06;100.00;95031.66;5042465;28;20987;-78
2022/04/09 02:47:24;;;;;;;4.03;1.70;;;;;;;-0.10;100.00;95033.69;5017624;28;20112;-77
2022/04/09 02:49:50;;;;;;;3.07;1.97;;;;;;;-0.10;100.00;95033.69;5013264;28;20574;-77
2022/04/09 02:52:15;;;;;;;2.60;1.40;;;;;;;-0.11;100.00;95047.53;5024325;28;20036;-77
2022/04/09 02:54:41;;;;;;;4.93;2.00;;;;;;;-0.02;100.00;95058.91;5034067;28;20033;-77
2022/04/09 02:57:07;;;;;;;4.40;2.30;;;;;;;-0.06;100.00;95068.66;5014489;28;20025;-77
2022/04/09 02:59:39;;;;;;;3.83;2.20;;;;;;;-0.06;100.00;95067.84;5029511;28;20112;-78
2022/04/09 03:02:04;;;;;;;12.80;8.33;;;;;;;0.02;100.00;95085.31;5035009;28;20535;-78
2022/04/09 03:04:30;;;;;;;11.43;6.87;;;;;;;0.02;100.00;95086.13;5011751;28;20044;-76
2022/04/09 03:06:56;;;;;;;6.40;2.80;;;;;;;0.04;100.00;95094.59;5032594;28;20033;-77
2022/04/09 03:09:22;;;;;;;4.93;2.80;;;;;;;0.01;100.00;95105.19;5018071;28;20021;-77
2022/04/09 03:11:48;;;;;;;5.33;2.80;;;;;;;0.04;100.00;95110.09;5035328;28;21038;-79
2022/04/09 03:14:13;;;;;;;4.83;2.83;;;;;;;0.13;100.00;95116.28;5018806;28;20037;-80
2022/04/09 03:16:39;;;;;;;10.20;6.07;;;;;;;0.08;100.00;95121.84;5019231;28;20037;-80
2022/04/09 03:19:06;;;;;;;12.03;6.67;;;;;;;0.10;100.00;95130.31;5028027;28;20025;-80
2022/04/09 03:21:31;;;;;;;7.27;4.03;;;;;;;0.09;100.00;95143.34;5055628;28;20454;-80
2022/04/09 03:23:57;;;;;;;7.73;4.17;;;;;;;0.10;100.00;95150.97;5035994;28;20029;-79
2022/04/09 03:26:23;;;;;;;6.47;3.73;;;;;;;0.09;100.00;95154.50;5031714;28;20563;-80
2022/04/09 03:28:54;;;;;;;6.20;3.30;;;;;;;0.08;100.00;95160.59;5015569;28;20025;-79
2022/04/09 03:31:20;;;;;;;7.97;3.80;;;;;;;0.12;100.00;95169.75;5035681;28;20859;-79
2022/04/09 03:33:47;;;;;;;7.50;3.97;;;;;;;0.14;100.00;95173.06;5018545;28;20043;-79
2022/04/09 03:36:18;;;;;;;6.17;3.70;;;;;;;0.14;100.00;95173.06;5015753;28;20478;-79
2022/04/09 03:38:45;;;;;;;7.00;4.27;;;;;;;0.18;100.00;95189.13;5019700;28;20498;-80
2022/04/09 03:41:11;;;;;;;7.47;4.10;;;;;;;0.17;100.00;95208.19;5011548;28;20449;-80
2022/04/09 03:43:49;;;;;;;6.00;3.03;;;;;;;0.16;100.00;95217.69;5034757;28;20476;-79
2022/04/09 03:46:16;;;;;;;7.80;4.07;;;;;;;0.14;100.00;95222.16;5052919;28;20455;-80
2022/04/09 03:48:43;;;;;;;6.83;4.23;;;;;;;0.12;100.00;95226.63;5039538;28;20487;-80
2022/04/09 03:51:12;;;;;;;8.87;4.83;;;;;;;0.13;100.00;95230.03;5028884;28;20829;-79
2022/04/09 03:53:40;;;;;;;9.33;4.77;;;;;;;0.13;100.00;95230.84;5016669;28;20973;-79
2022/04/09 03:56:08;;;;;;;10.00;5.33;;;;;;;0.13;100.00;95236.00;5034135;28;20467;-80
2022/04/09 03:58:39;;;;;;;10.20;4.82;;;;;;;0.16;100.00;95253.88;5018624;28;21007;-78
2022/04/09 04:01:08;;;;;;;11.77;6.80;;;;;;;0.11;100.00;95250.03;5019222;28;20035;-78
2022/04/09 04:03:35;;;;;;;10.47;6.37;;;;;;;0.07;100.00;95259.78;5033549;28;20540;-76
2022/04/09 04:06:01;;;;;;;9.33;6.20;;;;;;;0.08;100.00;95276.13;5033856;28;20448;-77
2022/04/09 04:08:28;;;;;;;11.90;6.13;;;;;;;0.13;100.00;95279.16;5016894;28;20471;-77
2022/04/09 04:10:53;;;;;;;12.00;7.97;;;;;;;0.05;100.00;95279.75;5032320;28;20559;-77
2022/04/09 04:13:32;;;;;;;13.97;8.67;;;;;;;0.04;100.00;95290.22;5034191;28;20446;-77
2022/04/09 04:16:01;;;;;;;16.33;8.80;;;;;;;0.03;100.00;95291.97;5033264;28;20516;-78
2022/04/09 04:18:28;;;;;;;15.77;9.47;;;;;;;0.02;100.00;95300.66;5032760;28;21009;-77
2022/04/09 04:20:57;;;;;;;14.93;8.80;;;;;;;0.04;100.00;95306.56;5023307;28;20443;-76
2022/04/09 04:23:23;;;;;;;15.60;10.47;;;;;;;0.01;100.00;95313.72;5015384;28;20555;-77
2022/04/09 04:25:50;;;;;;;16.07;10.00;;;;;;;0.02;100.00;95313.59;5014155;28;20459;-77
2022/04/09 04:28:17;;;;;;;16.33;10.30;;;;;;;-0.03;100.00;95313.94;5020876;28;20569;-78
2022/04/09 04:30:44;;;;;;;18.63;10.30;;;;;;;0.06;100.00;95317.56;5013575;28;20571;-78
2022/04/09 04:33:10;;;;;;;14.70;10.37;;;;;;;-0.02;100.00;95323.34;5030755;28;20472;-77
2022/04/09 04:35:44;;;;;;;19.13;11.95;;;;;;;0.07;100.00;95321.81;5036940;28;20498;-76
2022/04/09 04:38:11;;;;;;;18.30;11.07;;;;;;;0.03;100.00;95327.31;5050058;28;20055;-76
2022/04/09 04:40:40;;;;;;;21.30;12.60;;;;;;;0.01;100.00;95337.81;5012171;28;21056;-77
2022/04/09 04:43:07;;;;;;;17.90;11.97;;;;;;;-0.03;100.00;95338.97;5028670;28;20557;-77
2022/04/09 04:45:33;;;;;;;19.60;14.13;;;;;;;0.04;100.00;95350.50;5007564;28;20897;-77
2022/04/09 04:48:02;;;;;;;23.20;16.63;;;;;;;-0.01;100.00;95340.47;5012818;28;20040;-77
2022/04/09 04:50:31;;;;;;;20.00;13.43;;;;;;;0.04;100.00;95353.06;5007218;28;20497;-76
2022/04/09 04:52:59;;;;;;;19.83;13.17;;;;;;;0.09;100.00;95356.13;5009869;28;20558;-77
2022/04/09 04:55:29;;;;;;;22.03;14.57;;;;;;;0.05;100.00;95374.56;5011930;28;20813;-77
2022/04/09 04:57:55;;;;;;;22.30;14.43;;;;;;;0.08;100.00;95382.91;5016092;28;20448;-76
2022/04/09 05:00:44;;;;;;;21.83;14.60;;;;;;;0.11;100.00;95384.47;5044207;28;21059;-77
2022/04/09 05:03:15;;;;;;;23.57;13.90;;;;;;;0.09;100.00;95394.91;5027838;28;20467;-77
2022/04/09 05:05:57;;;;;;;18.23;13.43;;;;;;;0.09;100.00;95397.47;5034693;28;21117;-77
2022/04/09 05:08:22;;;;;;;19.10;13.13;;;;;;;0.12;100.00;95405.00;5013902;28;20468;-77
2022/04/09 05:10:49;;;;;;;20.73;13.93;;;;;;;0.20;100.00;95401.84;5032078;28;20029;-77
2022/04/09 05:13:17;;;;;;;19.93;13.97;;;;;;;0.18;100.00;95416.66;5030642;28;20475;-77
2022/04/09 05:15:43;;;;;;;23.17;14.63;;;;;;;0.15;100.00;95417.72;5034052;28;20496;-77
2022/04/09 05:18:10;;;;;;;24.20;15.17;;;;;;;0.18;100.00;95425.22;5018006;28;20104;-76
2022/04/09 05:20:37;;;;;;;22.87;15.13;;;;;;;0.19;100.00;95426.88;5025829;28;20476;-77
2022/04/09 05:23:08;;;;;;;18.67;12.87;;;;;;;0.21;100.00;95431.94;5036761;28;20443;-77
2022/04/09 05:25:34;;;;;;;21.93;12.57;;;;;;;0.22;100.00;95444.75;5015516;28;20463;-77
2022/04/09 05:28:04;;;;;;;21.67;13.90;;;;;;;0.26;100.00;95447.09;5025274;28;20480;-76
2022/04/09 05:30:35;;;;;;;13.93;9.25;;;;;;;0.26;100.00;95460.84;5042898;28;20479;-79
2022/04/09 05:33:03;;;;;;;18.23;12.00;;;;;;;0.25;100.00;95464.38;5016171;28;20129;-79
2022/04/09 05:35:29;;;;;;;16.97;11.23;;;;;;;0.23;100.00;95471.41;5033110;28;20543;-80
2022/04/09 05:37:56;;;;;;;16.73;10.57;;;;;;;0.24;100.00;95473.09;5009339;28;20487;-79
2022/04/09 05:40:30;;;;;;;17.53;12.10;;;;;;;0.34;100.00;95483.56;5042254;28;21041;-79
2022/04/09 05:43:02;;;;;;;19.10;10.67;;;;;;;0.26;100.00;95491.06;5033087;28;20463;-80
2022/04/09 05:45:28;;;;;;;14.73;9.90;;;;;;;0.40;100.00;95498.59;5032360;28;20458;-79
2022/04/09 05:47:54;;;;;;;13.53;9.63;;;;;;;0.42;100.00;95500.13;5017225;28;20836;-79
2022/04/09 05:50:26;;;;;;;18.90;9.70;;;;;;;0.57;100.00;95513.69;5029194;28;20087;-80
2022/04/09 05:52:54;;;;;;;15.77;10.37;;;;;;;0.58;100.00;95517.94;5009361;28;20524;-79
2022/04/09 05:55:20;;;;;;;13.10;8.90;;;;;;;0.45;100.00;95519.78;5031591;28;20559;-80
2022/04/09 05:57:47;;;;;;;14.90;9.90;;;;;;;0.57;100.00;95525.78;5033225;28;21102;-79
2022/04/09 06:00:16;;;;;;;14.40;10.60;;;;;;;0.76;100.00;95526.06;5033569;28;20478;-80
2022/04/09 06:02:50;;;;;;;14.57;10.13;;;;;;;0.85;100.00;95540.88;5009989;28;20503;-80
2022/04/09 06:05:27;;;;;;;15.90;9.30;;;;;;;0.90;100.00;95538.75;5033295;28;20471;-80
2022/04/09 06:07:55;;;;;;;14.70;9.27;;;;;;;0.76;100.00;95543.34;5033031;28;20847;-77
2022/04/09 06:10:21;;;;;;;14.10;9.23;;;;;;;0.89;100.00;95550.06;5031380;28;20474;-77
2022/04/09 06:12:47;;;;;;;12.60;8.87;;;;;;;0.81;100.00;95559.38;5041452;28;20028;-77
2022/04/09 06:15:19;;;;;;;16.07;9.63;;;;;;;0.89;100.00;95567.38;5032666;28;20528;-78
2022/04/09 06:17:49;;;;;;;15.33;9.77;;;;;;;0.90;100.00;95569.81;5030375;28;20482;-77
2022/04/09 06:20:16;;;;;;;17.23;10.43;;;;;;;0.83;100.00;95578.19;5014631;28;20459;-77
2022/04/09 06:22:45;;;;;;;16.33;9.53;;;;;;;0.79;100.00;95592.28;5011228;28;20053;-77
2022/04/09 06:25:13;;;;;;;14.20;8.83;;;;;;;0.76;100.00;95593.34;5031278;28;21049;-77
2022/04/09 06:27:40;;;;;;;14.90;9.50;;;;;;;0.75;100.00;95590.88;5018361;28;20478;-77
2022/04/09 06:30:08;;;;;;;16.77;9.20;;;;;;;0.81;100.00;95601.59;5032771;28;21320;-79
2022/04/09 06:32:38;;;;;;;15.23;9.37;;;;;;;0.79;100.00;95600.88;5019233;28;20472;-80
2022/04/09 06:35:04;;;;;;;16.30;9.43;;;;;;;0.83;100.00;95607.47;5026677;28;20471;-79
2022/04/09 06:37:30;;;;;;;16.27;10.83;;;;;;;0.86;100.00;95619.34;5032726;28;20459;-80
2022/04/09 06:39:57;;;;;;;12.17;8.67;;;;;;;0.86;100.00;95621.94;5033502;28;20451;-79
2022/04/09 06:42:25;;;;;;;15.43;9.23;;;;;;;0.96;100.00;95625.50;5017135;28;20456;-79
2022/04/09 06:45:20;;;;;;;16.83;9.00;;;;;;;1.02;100.00;95629.41;5016070;28;20475;-79
2022/04/09 06:48:05;;;;;;;11.37;7.57;;;;;;;0.89;100.00;95642.44;5047399;28;20823;-77
2022/04/09 06:50:34;;;;;;;12.80;7.57;;;;;;;1.03;100.00;95644.81;5033400;28;20463;-77
2022/04/09 06:52:59;;;;;;;13.70;8.40;;;;;;;0.94;100.00;95651.50;5020373;28;20463;-77
2022/04/09 06:55:29;;;;;;;13.83;8.03;;;;;;;0.97;100.00;95653.03;5017613;28;20028;-76
2022/04/09 06:58:01;;;;;;;12.03;7.57;;;;;;;1.06;100.00;95657.53;5014621;28;20559;-77
2022/04/09 07:00:32;;;;;;;14.03;8.37;;;;;;;1.06;100.00;95656.69;5036032;28;20477;-76
2022/04/09 07:03:02;;;;;;;11.53;7.60;;;;;;;0.96;100.00;95669.50;5033697;28;20472;-77
2022/04/09 07:05:29;;;;;;;12.33;7.87;;;;;;;1.10;100.00;95660.69;5034877;28;20471;-78
2022/04/09 07:07:55;;;;;;;13.13;8.37;;;;;;;1.35;100.00;95662.28;5046189;28;20448;-78
2022/04/09 07:10:21;;;;;;;16.43;9.03;;;;;;;1.35;100.00;95668.28;5033111;28;20536;-79
2022/04/09 07:12:46;;;;;;;13.67;7.70;;;;;;;1.28;100.00;95671.47;5055791;28;20036;-79
2022/04/09 07:15:12;;;;;;;14.70;7.97;;;;;;;1.38;100.00;95672.41;5019738;28;20067;-80
2022/04/09 07:17:38;;;;;;;14.93;7.83;;;;;;;1.38;100.00;95668.06;5034496;28;20037;-78
2022/04/09 07:20:09;;;;;;;14.93;7.80;;;;;;;1.42;100.00;95671.22;5033565;28;20545;-79
2022/04/09 07:22:36;;;;;;;13.00;7.77;;;;;;;1.44;100.00;95677.09;5007504;28;20503;-78
2022/04/09 07:25:04;;;;;;;17.47;9.37;;;;;;;1.37;100.00;95675.91;5032580;28;20501;-78
2022/04/09 07:27:41;;;;;;;12.77;7.80;;;;;;;1.37;100.00;95678.50;5051205;28;20502;-79
2022/04/09 07:30:09;;;;;;;13.40;8.37;;;;;;;1.45;100.00;95678.78;5028322;28;20574;-78
2022/04/09 07:32:35;;;;;;;15.73;10.00;;;;;;;1.75;100.00;95675.59;5025183;28;20467;-79
2022/04/09 07:35:02;;;;;;;15.03;10.57;;;;;;;1.80;100.00;95672.63;5010642;28;20860;-78
2022/04/09 07:37:27;;;;;;;15.27;9.70;;;;;;;1.67;100.00;95682.28;5035080;28;20469;-78
2022/04/09 07:39:53;;;;;;;13.13;7.87;;;;;;;1.70;100.00;95676.88;5028802;28;20451;-78
2022/04/09 07:42:20;;;;;;;13.43;7.60;;;;;;;1.64;100.00;95689.38;5035812;28;20029;-80
2022/04/09 07:44:46;;;;;;;11.83;8.10;;;;;;;1.66;100.00;95686.66;5053318;28;20075;-79
2022/04/09 07:47:12;;;;;;;12.47;6.93;;;;;;;1.60;100.00;95687.94;5035878;28;20466;-79
2022/04/09 07:49:38;;;;;;;13.13;8.60;;;;;;;2.00;100.00;95689.22;5037707;28;20468;-80
2022/04/09 07:52:04;;;;;;;14.97;7.70;;;;;;;2.07;100.00;95690.38;5040348;28;20032;-79
2022/04/09 07:54:31;;;;;;;12.63;8.10;;;;;;;2.27;100.00;95696.59;5044397;28;20033;-80
2022/04/09 07:56:57;;;;;;;14.23;7.97;;;;;;;2.57;100.00;95704.53;5048272;28;20167;-80
2022/04/09 07:59:23;;;;;;;11.50;7.27;;;;;;;2.55;100.00;95695.25;5036175;28;20058;-81
2022/04/09 08:01:49;;;;;;;11.33;7.37;;;;;;;2.74;100.00;95699.75;5035499;28;20033;-81
2022/04/09 08:04:15;;;;;;;15.93;8.53;;;;;;;3.22;100.00;95699.28;5015997;28;20511;-80
2022/04/09 08:06:40;;;;;;;12.20;7.00;;;;;;;3.55;100.00;95698.22;5046921;28;20037;-79
2022/04/09 08:09:06;;;;;;;13.17;6.93;;;;;;;2.85;100.00;95702.31;5051291;28;20025;-81
2022/04/09 08:11:32;;;;;;;10.40;7.47;;;;;;;2.49;100.00;95711.31;5018389;28;20028;-79
2022/04/09 08:13:57;;;;;;;11.87;7.40;;;;;;;2.45;100.00;95715.06;5059165;28;20031;-80
2022/04/09 08:16:25;;;;;;;19.57;8.60;;;;;;;2.25;100.00;95724.47;5052291;28;20029;-79
2022/04/09 08:18:51;;;;;;;10.93;7.10;;;;;;;2.24;100.00;95728.78;5014225;28;20036;-80
2022/04/09 08:21:18;;;;;;;12.87;7.70;;;;;;;2.23;100.00;95721.16;5049436;28;20060;-80
2022/04/09 08:23:46;;;;;;;15.03;7.30;;;;;;;2.19;100.00;95722.34;5042336;28;20059;-79
2022/04/09 08:26:12;;;;;;;16.50;8.87;;;;;;;2.78;100.00;95740.09;5037069;28;20032;-80
2022/04/09 08:28:37;;;;;;;13.00;8.87;;;;;;;2.63;100.00;95739.56;5020442;28;20057;-79
2022/04/09 08:31:03;;;;;;;15.10;8.87;;;;;;;2.34;100.00;95737.50;5037522;28;20128;-78
2022/04/09 08:33:29;;;;;;;14.90;9.00;;;;;;;2.33;100.00;95738.47;5016948;28;20410;-79
2022/04/09 08:35:55;;;;;;;13.77;7.50;;;;;;;2.35;100.00;95733.97;5034264;28;20720;-80
2022/04/09 08:38:21;;;;;;;16.17;7.83;;;;;;;2.21;100.00;95746.38;5054597;28;20059;-79
2022/04/09 08:40:47;;;;;;;11.13;7.97;;;;;;;2.20;100.00;95748.16;5031997;28;20029;-78
2022/04/09 08:43:14;;;;;;;14.23;8.63;;;;;;;2.29;100.00;95744.03;5013940;28;20034;-78
2022/04/09 08:45:42;;;;;;;13.97;6.97;;;;;;;2.80;100.00;95757.22;5044258;28;20112;-79
2022/04/09 08:48:10;;;;;;;12.43;7.80;;;;;;;2.75;100.00;95754.19;5029594;28;20079;-79
2022/04/09 08:50:37;;;;;;;17.33;9.23;;;;;;;2.95;100.00;95754.31;5025405;28;20033;-79
2022/04/09 08:53:08;;;;;;;16.33;8.50;;;;;;;2.66;100.00;95757.50;5031903;28;20024;-77
2022/04/09 08:55:37;;;;;;;14.90;8.30;;;;;;;2.78;100.00;95759.13;5027326;28;20028;-77
2022/04/09 08:58:04;;;;;;;11.53;6.60;;;;;;;2.88;100.00;95758.38;5019267;28;20075;-78
2022/04/09 09:00:30;;;;;;;11.60;7.07;;;;;;;2.93;100.00;95762.25;5047511;28;20029;-78
2022/04/09 09:02:59;;;;;;;16.27;7.20;;;;;;;3.24;100.00;95759.75;5030412;28;20467;-79
2022/04/09 09:05:30;;;;;;;13.63;7.43;;;;;;;3.19;100.00;95757.53;5013692;28;20048;-78
2022/04/09 09:07:56;;;;;;;16.97;8.53;;;;;;;3.80;100.00;95751.63;5016888;28;20037;-79
2022/04/09 09:10:22;;;;;;;11.33;6.13;;;;;;;3.88;100.00;95748.34;5031825;28;20047;-79
2022/04/09 09:12:58;;;;;;;11.37;6.10;;;;;;;4.04;100.00;95753.91;5028396;28;20662;-79
2022/04/09 09:15:25;;;;;;;11.80;6.00;;;;;;;4.40;100.00;95742.13;5027544;28;20036;-79
2022/04/09 09:17:58;;;;;;;11.03;5.53;;;;;;;5.33;100.00;95743.44;5034034;28;20071;-80
2022/04/09 09:20:25;;;;;;;15.07;5.85;;;;;;;5.19;100.00;95749.84;5026825;28;20038;-79
2022/04/09 09:22:53;;;;;;;10.93;6.10;;;;;;;5.53;100.00;95748.59;5028320;28;20183;-79
2022/04/09 09:25:18;;;;;;;14.10;5.07;;;;;;;5.85;100.00;95745.66;5019188;28;20025;-79
2022/04/09 09:27:44;;;;;;;11.90;4.93;;;;;;;6.51;100.00;95747.34;5050550;28;20029;-78
2022/04/09 09:30:13;;;;;;;12.20;5.40;;;;;;;6.45;100.00;95747.91;5036249;28;20056;-78
2022/04/09 09:32:41;;;;;;;11.40;5.63;;;;;;;5.98;100.00;95743.56;5031238;28;20032;-78
2022/04/09 09:35:09;;;;;;;12.07;5.53;;;;;;;5.84;100.00;95752.66;5040535;28;20038;-78
2022/04/09 09:37:37;;;;;;;11.27;4.37;;;;;;;5.44;100.00;95758.91;5032907;28;20078;-78
2022/04/09 09:40:04;;;;;;;11.77;5.37;;;;;;;4.54;100.00;95761.75;5017351;28;20028;-79
2022/04/09 09:42:33;;;;;;;8.90;5.23;;;;;;;4.32;100.00;95770.56;5011604;28;20044;-79
2022/04/09 09:44:59;;;;;;;9.40;5.03;;;;;;;4.24;100.00;95765.22;5013076;28;20037;-79
2022/04/09 09:47:25;;;;;;;14.43;7.97;;;;;;;4.95;100.00;95773.72;5030697;28;20040;-79
2022/04/09 09:49:55;;;;;;;18.97;10.07;;;;;;;4.72;100.00;95765.31;5009580;28;20024;-79
2022/04/09 09:52:24;;;;;;;15.70;7.27;;;;;;;4.43;100.00;95769.66;5016722;28;20035;-78
2022/04/09 09:55:18;;;;;;;12.93;8.17;;;;;;;4.31;100.00;95771.53;5035273;28;20013;-78
2022/04/09 09:57:48;;;;;;;13.03;6.67;;;;;;;4.37;100.00;95767.59;5009743;28;20548;-79
2022/04/09 10:00:14;;;;;;;21.63;10.10;;;;;;;4.34;100.00;95788.69;5015013;28;20418;-79
2022/04/09 10:02:43;;;;;;;11.77;3.60;;;;;;;3.86;100.00;95791.91;5012655;28;20461;-79
2022/04/09 10:05:09;;;;;;;7.90;3.23;;;;;;;3.73;100.00;95792.91;5009415;28;20048;-79
2022/04/09 10:07:35;;;;;;;9.17;3.37;;;;;;;5.40;100.00;95786.22;5032386;28;20149;-79
2022/04/09 10:10:02;;;;;;;8.00;3.43;;;;;;;6.41;100.00;95776.09;5033105;28;20477;-78
2022/04/09 10:12:28;;;;;;;9.90;3.43;;;;;;;6.00;100.00;95782.56;5022753;28;20040;-79
2022/04/09 10:14:58;;;;;;;9.40;3.17;;;;;;;5.06;100.00;95785.78;5050657;28;20021;-78
2022/04/09 10:17:27;;;;;;;13.23;4.03;;;;;;;5.02;100.00;95787.03;5017525;28;20044;-78
2022/04/09 10:19:55;;;;;;;11.00;2.50;;;;;;;4.68;100.00;95790.00;5014907;28;20025;-78
2022/04/09 10:22:26;;;;;;;7.70;2.63;;;;;;;5.16;100.00;95785.81;5048540;28;20108;-78
2022/04/09 10:24:55;;;;;;;9.03;3.50;;;;;;;5.16;100.00;95788.41;5007996;28;20056;-77
2022/04/09 10:27:41;;;;;;;6.50;2.93;;;;;;;4.75;100.00;95789.47;5033999;28;20123;-78
2022/04/09 10:30:14;;;;;;;28.40;13.67;;;;;;;4.82;100.00;95782.75;5048800;28;20504;-78
2022/04/09 10:32:51;;;;;;;12.10;6.05;;;;;;;5.63;100.00;95780.69;5015407;28;20036;-79
2022/04/09 10:35:38;;;;;;;16.00;5.20;;;;;;;7.01;92.47;95773.03;5054129;28;20033;-78
2022/04/09 10:38:07;;;;;;;22.83;6.47;;;;;;;7.43;81.13;95767.16;5014424;28;20033;-80
2022/04/09 10:40:37;;;;;;;20.20;7.60;;;;;;;7.32;81.98;95755.97;5034899;28;20078;-78
2022/04/09 10:43:04;;;;;;;12.27;3.67;;;;;;;7.61;80.50;95767.94;5031478;28;20106;-78
2022/04/09 10:46:02;;;;;;;21.60;6.47;;;;;;;6.75;89.43;95763.28;5037638;28;20067;-79
2022/04/09 10:48:29;;;;;;;26.53;9.50;;;;;;;6.52;87.28;95759.41;5040700;28;20029;-77
2022/04/09 10:51:05;;;;;;;13.93;4.77;;;;;;;6.22;99.73;95781.41;5047585;28;20052;-75
2022/04/09 10:53:34;;;;;;;27.20;7.53;;;;;;;6.73;92.46;95780.06;5036204;28;20169;-77
2022/04/09 10:59:18;;;;;;;8.43;2.40;;;;;;;5.95;94.79;95774.34;5028851;28;20090;-78
2022/04/09 11:01:54;;;;;;;6.73;2.03;;;;;;;6.64;90.36;95775.69;5026947;28;20090;-79
2022/04/09 11:04:25;;;;;;;12.60;3.77;;;;;;;7.18;82.69;95782.66;5015031;28;20095;-79
2022/04/09 11:07:12;;;;;;;8.60;4.07;;;;;;;6.69;77.05;95778.72;5033481;28;20036;-79
2022/04/09 11:09:59;;;;;;;9.90;1.83;;;;;;;6.38;76.23;95777.22;5009423;28;20029;-80
2022/04/09 11:12:57;;;;;;;;;;;;;;;;;;;;;
2022/04/09 11:15:36;;;;;;;8.17;2.07;;;;;;;6.01;81.16;95779.84;5026461;28;20041;-78
2022/04/09 11:18:02;;;;;;;7.10;2.10;;;;;;;6.20;80.37;95778.94;5036718;28;20036;-78
2022/04/09 11:20:36;;;;;;;3.30;1.40;;;;;;;6.49;80.04;95775.38;5049264;28;20477;-78
2022/04/09 11:23:14;;;;;;;5.23;1.73;;;;;;;7.42;73.54;95776.81;5033968;28;20048;-78
2022/04/09 11:25:45;;;;;;;4.83;1.67;;;;;;;6.58;72.60;95784.97;5027685;28;20029;-78
2022/04/09 11:28:19;;;;;;;5.13;1.57;;;;;;;5.95;74.30;95775.19;5045070;28;20036;-77
2022/04/09 11:30:54;;;;;;;7.47;2.40;;;;;;;6.42;78.40;95782.97;5019792;28;20037;-77
2022/04/09 11:33:21;;;;;;;5.47;2.00;;;;;;;7.35;75.24;95796.69;5030787;28;20056;-77
2022/04/09 11:35:47;;;;;;;9.87;1.90;;;;;;;6.35;75.95;95793.16;5042554;28;20033;-78
2022/04/09 11:38:13;;;;;;;8.23;2.83;;;;;;;7.19;80.92;95792.13;5031538;28;20039;-76